Time;durP1;ratioP1;P1;durP2;ratioP2;P2;SDS_P1;SDS_P2;PMS_P1;PMS_P2;Temp;Humidity;BMP_temperature;BMP_pressure;BME280_temperature;BME280_humidity;BME280_pressure;Samples;Min_cycle;Max_cycle;Signal;HPM_P1;HPM_P2
2024/02/21 00:02:15;;;;;;;10.93;4.45;;;;;;;;;;1764018;81;25686;-60
2024/02/21 00:04:44;;;;;;;10.43;4.22;;;;;;;;;;1764577;81;25624;-60
2024/02/21 00:07:10;;;;;;;13.10;4.33;;;;;;;;;;1764544;81;29636;-60
2024/02/21 00:09:37;;;;;;;14.73;5.53;;;;;;;;;;1764476;81;25479;-60
2024/02/21 00:12:05;;;;;;;14.45;5.37;;;;;;;;;;1764593;81;25555;-61
2024/02/21 00:14:31;;;;;;;11.45;5.53;;;;;;;;;;1764530;81;26231;-58
2024/02/21 00:16:57;;;;;;;20.40;5.87;;;;;;;;;;1764615;81;25469;-60
2024/02/21 00:19:24;;;;;;;11.85;5.78;;;;;;;;;;1764573;81;27434;-61
2024/02/21 00:21:50;;;;;;;14.58;5.97;;;;;;;;;;1764494;81;33160;-58
2024/02/21 00:24:17;;;;;;;12.73;5.15;;;;;;;;;;1764445;80;25391;-65
2024/02/21 00:26:43;;;;;;;104.97;47.48;;;;;;;;;;1764559;81;26163;-59
2024/02/21 00:29:09;;;;;;;24.43;11.25;;;;;;;;;;1764585;81;25405;-59
2024/02/21 00:31:35;;;;;;;17.95;7.95;;;;;;;;;;1764564;81;27879;-61
2024/02/21 00:34:01;;;;;;;14.63;6.12;;;;;;;;;;1764487;81;25718;-61
2024/02/21 00:36:27;;;;;;;14.30;6.12;;;;;;;;;;1764580;81;25403;-60
2024/02/21 00:38:53;;;;;;;16.48;6.03;;;;;;;;;;1764546;81;25623;-61
2024/02/21 00:41:19;;;;;;;15.50;5.80;;;;;;;;;;1764649;81;32262;-61
2024/02/21 00:43:48;;;;;;;18.55;6.17;;;;;;;;;;1764561;81;27316;-61
2024/02/21 00:46:14;;;;;;;21.17;6.65;;;;;;;;;;1764513;81;25437;-64
2024/02/21 00:48:40;;;;;;;16.93;6.10;;;;;;;;;;1764516;81;25633;-59
2024/02/21 00:51:06;;;;;;;13.90;6.35;;;;;;;;;;1764533;81;26235;-60
2024/02/21 00:53:32;;;;;;;18.80;5.80;;;;;;;;;;1764591;81;25620;-60
2024/02/21 00:55:58;;;;;;;14.47;5.28;;;;;;;;;;1764556;81;27470;-61
2024/02/21 00:58:24;;;;;;;15.35;5.65;;;;;;;;;;1764476;81;33050;-60
2024/02/21 01:00:50;;;;;;;12.07;4.70;;;;;;;;;;1764571;81;25653;-59
2024/02/21 01:03:16;;;;;;;12.20;4.75;;;;;;;;;;1764448;81;26377;-59
2024/02/21 01:05:43;;;;;;;18.75;4.83;;;;;;;;;;1764547;81;25512;-60
2024/02/21 01:08:08;;;;;;;7.50;4.00;;;;;;;;;;1764566;81;26902;-61
2024/02/21 01:10:34;;;;;;;14.10;4.15;;;;;;;;;;1764071;81;25766;-59
2024/02/21 01:13:00;;;;;;;15.03;5.10;;;;;;;;;;1764087;81;30050;-60
2024/02/21 01:15:27;;;;;;;16.90;6.08;;;;;;;;;;1764580;81;34687;-60
2024/02/21 01:17:54;;;;;;;15.03;5.20;;;;;;;;;;1764568;81;25631;-61
2024/02/21 01:20:22;;;;;;;14.07;5.12;;;;;;;;;;1764605;81;28059;-61
2024/02/21 01:22:48;;;;;;;12.10;4.40;;;;;;;;;;1764636;81;25626;-60
2024/02/21 01:25:15;;;;;;;13.93;4.80;;;;;;;;;;1766043;81;30038;-60
2024/02/21 01:27:42;;;;;;;17.80;5.12;;;;;;;;;;1768728;81;25596;-61
2024/02/21 01:30:12;;;;;;;18.12;5.70;;;;;;;;;;1768778;81;25571;-61
2024/02/21 01:32:39;;;;;;;15.08;5.05;;;;;;;;;;1768770;81;27403;-60
2024/02/21 01:35:07;;;;;;;12.58;4.78;;;;;;;;;;1768680;81;25408;-60
2024/02/21 01:37:33;;;;;;;16.45;6.22;;;;;;;;;;1768767;81;25397;-61
2024/02/21 01:40:00;;;;;;;14.40;4.90;;;;;;;;;;1768805;81;26268;-60
2024/02/21 01:42:26;;;;;;;13.93;6.35;;;;;;;;;;1768802;81;25488;-61
2024/02/21 01:44:52;;;;;;;17.02;5.45;;;;;;;;;;1768728;81;27418;-60
2024/02/21 01:47:18;;;;;;;11.48;4.75;;;;;;;;;;1768734;81;27193;-61
2024/02/21 01:49:45;;;;;;;19.00;6.50;;;;;;;;;;1768834;81;25446;-61
2024/02/21 01:52:13;;;;;;;18.50;6.97;;;;;;;;;;1768739;81;25690;-61
2024/02/21 01:54:40;;;;;;;12.75;4.08;;;;;;;;;;1769091;81;25628;-61
2024/02/21 01:57:07;;;;;;;15.48;6.45;;;;;;;;;;1768817;81;27370;-61
2024/02/21 01:59:33;;;;;;;17.40;7.03;;;;;;;;;;1768692;81;25390;-62
2024/02/21 02:02:00;;;;;;;80.97;74.87;;;;;;;;;;1768744;81;34955;-61
2024/02/21 02:04:27;;;;;;;76.70;70.72;;;;;;;;;;1768681;81;25655;-61
2024/02/21 02:06:55;;;;;;;19.35;14.20;;;;;;;;;;1768777;81;25566;-58
2024/02/21 02:09:21;;;;;;;18.87;6.97;;;;;;;;;;1768778;81;27417;-60
2024/02/21 02:11:48;;;;;;;15.48;6.25;;;;;;;;;;1768656;81;25476;-59
2024/02/21 02:14:14;;;;;;;13.88;5.65;;;;;;;;;;1768751;81;25457;-61
2024/02/21 02:16:40;;;;;;;13.80;6.80;;;;;;;;;;1768724;81;25643;-60
2024/02/21 02:19:06;;;;;;;17.12;7.12;;;;;;;;;;1768752;81;25420;-61
2024/02/21 02:21:35;;;;;;;17.52;7.35;;;;;;;;;;1768733;81;27333;-61
2024/02/21 02:24:01;;;;;;;19.62;8.08;;;;;;;;;;1768561;81;25863;-62
2024/02/21 02:26:27;;;;;;;15.93;7.62;;;;;;;;;;1765733;80;30041;-62
2024/02/21 02:28:53;;;;;;;20.95;8.33;;;;;;;;;;1764644;81;25703;-61
2024/02/21 02:31:19;;;;;;;16.55;7.80;;;;;;;;;;1764660;81;25408;-62
2024/02/21 02:33:45;;;;;;;16.27;8.25;;;;;;;;;;1764659;81;27405;-62
2024/02/21 02:36:12;;;;;;;15.80;8.30;;;;;;;;;;1764590;81;25416;-62
2024/02/21 02:38:38;;;;;;;15.75;7.42;;;;;;;;;;1764662;81;25389;-62
2024/02/21 02:41:05;;;;;;;18.07;7.72;;;;;;;;;;1764611;81;25750;-62
2024/02/21 02:43:31;;;;;;;16.90;8.78;;;;;;;;;;1764681;81;25416;-62
2024/02/21 02:45:58;;;;;;;15.72;8.00;;;;;;;;;;1764631;81;27329;-62
2024/02/21 02:48:24;;;;;;;20.65;9.00;;;;;;;;;;1764550;81;25884;-61
2024/02/21 02:50:50;;;;;;;12.43;7.60;;;;;;;;;;1764663;81;25631;-62
2024/02/21 02:53:16;;;;;;;17.48;8.23;;;;;;;;;;1764598;81;25790;-61
2024/02/21 02:55:42;;;;;;;17.50;9.15;;;;;;;;;;1764656;81;25589;-60
2024/02/21 02:58:08;;;;;;;25.92;19.57;;;;;;;;;;1764695;81;27360;-60
2024/02/21 03:00:36;;;;;;;83.50;76.87;;;;;;;;;;1764535;81;25807;-61
2024/02/21 03:03:08;;;;;;;59.25;54.48;;;;;;;;;;1764643;81;25614;-60
2024/02/21 03:05:32;;;;;;;23.75;10.72;;;;;;;;;;1763452;81;26277;-60
2024/02/21 03:07:59;;;;;;;20.23;11.12;;;;;;;;;;1764654;81;25616;-60
2024/02/21 03:10:25;;;;;;;26.30;9.85;;;;;;;;;;1764628;81;27336;-60
2024/02/21 03:12:53;;;;;;;27.90;11.95;;;;;;;;;;1764529;81;25608;-60
2024/02/21 03:15:19;;;;;;;19.27;9.90;;;;;;;;;;1764610;81;25466;-60
2024/02/21 03:17:46;;;;;;;18.52;9.18;;;;;;;;;;1764595;81;25717;-59
2024/02/21 03:20:13;;;;;;;28.65;13.48;;;;;;;;;;1764659;81;25404;-59
2024/02/21 03:22:40;;;;;;;22.05;11.63;;;;;;;;;;1764587;81;27411;-60
2024/02/21 03:25:10;;;;;;;22.67;12.35;;;;;;;;;;1764435;80;25450;-59
2024/02/21 03:27:37;;;;;;;21.07;11.22;;;;;;;;;;1764639;81;25555;-60
2024/02/21 03:30:06;;;;;;;21.02;10.43;;;;;;;;;;1764554;81;26285;-59
2024/02/21 03:32:32;;;;;;;22.27;10.45;;;;;;;;;;1764905;81;25401;-60
2024/02/21 03:34:58;;;;;;;30.52;26.90;;;;;;;;;;1764569;81;28007;-60
2024/02/21 03:37:25;;;;;;;86.95;79.75;;;;;;;;;;1764518;81;25469;-60
2024/02/21 03:39:52;;;;;;;60.10;54.98;;;;;;;;;;1764597;81;25470;-60
2024/02/21 03:42:18;;;;;;;20.02;11.40;;;;;;;;;;1764550;81;34653;-59
2024/02/21 03:44:44;;;;;;;23.27;10.60;;;;;;;;;;1764584;81;32538;-58
2024/02/21 03:47:11;;;;;;;23.67;10.63;;;;;;;;;;1764593;81;27378;-60
2024/02/21 03:49:38;;;;;;;23.65;9.38;;;;;;;;;;1764522;81;25604;-59
2024/02/21 03:52:05;;;;;;;16.90;9.50;;;;;;;;;;1764586;81;25422;-59
2024/02/21 03:54:31;;;;;;;24.82;10.50;;;;;;;;;;1764549;81;25619;-59
2024/02/21 03:56:57;;;;;;;20.35;9.43;;;;;;;;;;1764596;81;25412;-59
2024/02/21 03:59:24;;;;;;;20.00;9.05;;;;;;;;;;1764604;81;27380;-60
2024/02/21 04:01:53;;;;;;;21.23;8.80;;;;;;;;;;1764495;81;25637;-60
2024/02/21 04:04:21;;;;;;;18.87;9.20;;;;;;;;;;1764566;81;25483;-60
2024/02/21 04:06:50;;;;;;;19.98;9.83;;;;;;;;;;1764546;81;25700;-60
2024/02/21 04:09:17;;;;;;;16.50;8.08;;;;;;;;;;1764617;81;25472;-60
2024/02/21 04:11:43;;;;;;;18.80;7.87;;;;;;;;;;1764538;81;27371;-60
2024/02/21 04:14:11;;;;;;;20.57;9.33;;;;;;;;;;1764511;81;25579;-59
2024/02/21 04:16:38;;;;;;;16.73;7.85;;;;;;;;;;1764597;81;25551;-61
2024/02/21 04:19:05;;;;;;;19.92;9.10;;;;;;;;;;1764513;81;25612;-61
2024/02/21 04:21:31;;;;;;;22.32;8.30;;;;;;;;;;1764594;81;25563;-60
2024/02/21 04:23:58;;;;;;;15.10;7.72;;;;;;;;;;1764515;81;27299;-60
2024/02/21 04:26:24;;;;;;;15.98;11.12;;;;;;;;;;1766024;80;25473;-59
2024/02/21 04:28:50;;;;;;;18.07;8.10;;;;;;;;;;1768634;81;25548;-60
2024/02/21 04:31:16;;;;;;;22.75;9.05;;;;;;;;;;1768617;81;34703;-60
2024/02/21 04:33:42;;;;;;;20.95;8.70;;;;;;;;;;1768625;81;25510;-60
2024/02/21 04:36:09;;;;;;;18.05;7.75;;;;;;;;;;1768632;81;27429;-60
2024/02/21 04:38:35;;;;;;;28.32;25.35;;;;;;;;;;1768530;81;25687;-60
2024/02/21 04:41:02;;;;;;;16.70;8.43;;;;;;;;;;1768651;81;25510;-59
2024/02/21 04:43:29;;;;;;;16.67;8.65;;;;;;;;;;1768563;81;25684;-60
2024/02/21 04:45:55;;;;;;;18.20;8.38;;;;;;;;;;1768618;81;25476;-57
2024/02/21 04:48:21;;;;;;;15.85;7.20;;;;;;;;;;1768638;81;27374;-60
2024/02/21 04:50:47;;;;;;;14.55;8.23;;;;;;;;;;1768546;81;25528;-61
2024/02/21 04:53:13;;;;;;;19.15;8.90;;;;;;;;;;1768608;81;25479;-61
2024/02/21 04:55:40;;;;;;;20.75;8.80;;;;;;;;;;1768535;81;25728;-60
2024/02/21 04:58:06;;;;;;;22.52;9.53;;;;;;;;;;1768680;81;25564;-61
2024/02/21 05:00:32;;;;;;;16.93;8.05;;;;;;;;;;1768627;81;27373;-60
2024/02/21 05:02:58;;;;;;;30.23;24.87;;;;;;;;;;1768549;81;32964;-60
2024/02/21 05:05:24;;;;;;;88.72;81.70;;;;;;;;;;1768616;81;25606;-60
2024/02/21 05:07:50;;;;;;;17.77;8.78;;;;;;;;;;1768589;81;25612;-61
2024/02/21 05:10:17;;;;;;;18.12;8.88;;;;;;;;;;1768645;81;25570;-59
2024/02/21 05:12:43;;;;;;;68.83;62.98;;;;;;;;;;1768611;81;28031;-61
2024/02/21 05:15:10;;;;;;;22.32;10.08;;;;;;;;;;1768541;81;33573;-61
2024/02/21 05:17:36;;;;;;;80.80;74.62;;;;;;;;;;1768609;81;25575;-59
2024/02/21 05:20:03;;;;;;;80.97;74.30;;;;;;;;;;1768566;81;25674;-61
2024/02/21 05:22:29;;;;;;;78.33;72.13;;;;;;;;;;1768581;81;25606;-61
2024/02/21 05:24:55;;;;;;;78.47;72.43;;;;;;;;;;1768589;81;33051;-60
2024/02/21 05:27:21;;;;;;;84.83;78.07;;;;;;;;;;1768442;80;29623;-60
2024/02/21 05:29:48;;;;;;;78.77;71.93;;;;;;;;;;1768621;81;25405;-60
2024/02/21 05:32:14;;;;;;;80.13;73.40;;;;;;;;;;1768573;81;25592;-60
2024/02/21 05:34:40;;;;;;;77.30;71.27;;;;;;;;;;1768635;81;25611;-59
2024/02/21 05:37:06;;;;;;;76.17;70.33;;;;;;;;;;1768615;81;27332;-60
2024/02/21 05:39:32;;;;;;;75.07;68.73;;;;;;;;;;1768511;81;25729;-61
2024/02/21 05:41:59;;;;;;;77.00;70.83;;;;;;;;;;1768633;81;25566;-60
2024/02/21 05:44:26;;;;;;;84.43;76.33;;;;;;;;;;1768546;81;25691;-60
2024/02/21 05:46:53;;;;;;;74.90;69.30;;;;;;;;;;1768631;81;25605;-57
2024/02/21 05:49:19;;;;;;;75.53;69.90;;;;;;;;;;1768589;81;33055;-59
2024/02/21 05:51:45;;;;;;;77.30;71.30;;;;;;;;;;1768533;81;29652;-61
2024/02/21 05:54:11;;;;;;;75.30;69.33;;;;;;;;;;1768601;81;35028;-60
2024/02/21 05:56:37;;;;;;;80.67;73.40;;;;;;;;;;1768545;81;32214;-60
2024/02/21 05:59:03;;;;;;;70.93;65.00;;;;;;;;;;1768595;81;25536;-59
2024/02/21 06:01:29;;;;;;;79.70;72.90;;;;;;;;;;1768608;81;27454;-60
2024/02/21 06:03:55;;;;;;;80.83;74.17;;;;;;;;;;1768526;81;29586;-60
2024/02/21 06:06:21;;;;;;;76.50;70.70;;;;;;;;;;1768580;81;35106;-60
2024/02/21 06:08:48;;;;;;;76.03;69.47;;;;;;;;;;1768710;81;25677;-57
2024/02/21 06:11:15;;;;;;;76.73;70.17;;;;;;;;;;1768789;81;25547;-59
2024/02/21 06:13:41;;;;;;;76.83;68.67;;;;;;;;;;1768745;81;28156;-60
2024/02/21 06:16:07;;;;;;;26.33;12.55;;;;;;;;;;1768672;81;33435;-60
2024/02/21 06:18:39;;;;;;;25.77;13.35;;;;;;;;;;1768807;81;25599;-59
2024/02/21 06:21:05;;;;;;;39.23;14.28;;;;;;;;;;1768790;81;25691;-60
2024/02/21 06:23:32;;;;;;;31.50;13.88;;;;;;;;;;1768706;81;25442;-60
2024/02/21 06:25:58;;;;;;;29.77;14.35;;;;;;;;;;1768700;81;27862;-60
2024/02/21 06:28:24;;;;;;;26.87;14.03;;;;;;;;;;1768595;80;33211;-59
2024/02/21 06:30:50;;;;;;;35.10;15.95;;;;;;;;;;1768779;81;25468;-58
2024/02/21 06:33:16;;;;;;;30.02;14.15;;;;;;;;;;1768736;81;26186;-60
2024/02/21 06:35:42;;;;;;;31.90;13.43;;;;;;;;;;1768796;81;32714;-59
2024/02/21 06:38:08;;;;;;;26.05;14.05;;;;;;;;;;1768785;81;27298;-60
2024/02/21 06:40:38;;;;;;;26.93;14.25;;;;;;;;;;1768708;81;33054;-60
2024/02/21 06:43:03;;;;;;;29.30;14.50;;;;;;;;;;1768261;81;25207;-60
2024/02/21 06:45:29;;;;;;;30.32;15.03;;;;;;;;;;1768810;81;25753;-60
2024/02/21 06:47:55;;;;;;;29.30;13.80;;;;;;;;;;1768870;81;32158;-61
2024/02/21 06:50:21;;;;;;;31.57;14.55;;;;;;;;;;1768939;81;27485;-62
2024/02/21 06:52:47;;;;;;;30.30;14.40;;;;;;;;;;1768711;81;33029;-62
2024/02/21 06:55:13;;;;;;;31.05;14.30;;;;;;;;;;1768767;81;29734;-62
2024/02/21 06:57:39;;;;;;;28.95;13.95;;;;;;;;;;1768634;81;35288;-60
2024/02/21 07:00:08;;;;;;;28.87;13.88;;;;;;;;;;1768739;81;25548;-61
2024/02/21 07:02:35;;;;;;;36.37;15.63;;;;;;;;;;1768985;81;28114;-61
2024/02/21 07:05:00;;;;;;;27.48;14.90;;;;;;;;;;1768598;81;25701;-62
2024/02/21 07:07:26;;;;;;;33.98;16.67;;;;;;;;;;1768699;81;30023;-61
2024/02/21 07:09:54;;;;;;;31.80;15.18;;;;;;;;;;1768684;81;25735;-61
2024/02/21 07:12:20;;;;;;;34.83;15.40;;;;;;;;;;1768701;81;25610;-61
2024/02/21 07:14:46;;;;;;;42.65;17.00;;;;;;;;;;1768705;81;27345;-62
2024/02/21 07:17:12;;;;;;;33.63;16.40;;;;;;;;;;1768597;81;33494;-61
2024/02/21 07:19:38;;;;;;;31.00;15.55;;;;;;;;;;1768682;81;25638;-61
2024/02/21 07:22:04;;;;;;;39.95;17.95;;;;;;;;;;1768625;81;34692;-62
2024/02/21 07:24:31;;;;;;;32.15;16.62;;;;;;;;;;1768813;81;25405;-62
2024/02/21 07:27:04;;;;;;;39.42;16.00;;;;;;;;;;1768076;81;27311;-61
2024/02/21 07:29:25;;;;;;;38.65;17.02;;;;;;;;;;1763595;81;25596;-63
2024/02/21 07:31:51;;;;;;;39.30;16.32;;;;;;;;;;1764706;81;30118;-61
2024/02/21 07:34:18;;;;;;;33.65;16.60;;;;;;;;;;1764588;81;25683;-62
2024/02/21 07:36:44;;;;;;;36.68;15.95;;;;;;;;;;1764654;81;32259;-61
2024/02/21 07:39:11;;;;;;;34.67;16.50;;;;;;;;;;1764616;81;27398;-61
2024/02/21 07:41:38;;;;;;;31.90;15.10;;;;;;;;;;1764533;81;25618;-61
2024/02/21 07:44:05;;;;;;;34.35;15.65;;;;;;;;;;1764552;81;25367;-63
2024/02/21 07:46:31;;;;;;;34.48;15.90;;;;;;;;;;1764637;81;25602;-60
2024/02/21 07:48:57;;;;;;;33.42;15.80;;;;;;;;;;1764706;81;32158;-61
2024/02/21 07:51:27;;;;;;;44.33;17.00;;;;;;;;;;1764634;81;27359;-62
2024/02/21 07:53:53;;;;;;;40.05;16.80;;;;;;;;;;1764502;81;25583;-60
2024/02/21 07:56:19;;;;;;;42.90;17.70;;;;;;;;;;1764583;81;30070;-61
2024/02/21 07:58:45;;;;;;;38.88;15.28;;;;;;;;;;1764608;81;25606;-62
2024/02/21 08:01:11;;;;;;;35.65;15.23;;;;;;;;;;1764645;81;25575;-62
2024/02/21 08:03:38;;;;;;;40.73;18.50;;;;;;;;;;1764584;81;27262;-62
2024/02/21 08:06:05;;;;;;;37.90;17.52;;;;;;;;;;1764502;81;25410;-62
2024/02/21 08:08:31;;;;;;;39.23;16.90;;;;;;;;;;1764635;81;25489;-60
2024/02/21 08:10:57;;;;;;;59.48;25.72;;;;;;;;;;1764542;81;25772;-60
2024/02/21 08:13:23;;;;;;;40.75;20.17;;;;;;;;;;1764662;81;25678;-60
2024/02/21 08:15:50;;;;;;;41.00;18.75;;;;;;;;;;1764688;81;28127;-59
2024/02/21 08:18:16;;;;;;;40.90;18.30;;;;;;;;;;1764572;81;25392;-55
2024/02/21 08:20:42;;;;;;;37.48;17.67;;;;;;;;;;1764633;81;25627;-55
2024/02/21 08:23:08;;;;;;;37.65;19.37;;;;;;;;;;1764563;81;34643;-56
2024/02/21 08:25:34;;;;;;;47.55;20.60;;;;;;;;;;1764610;81;32586;-53
2024/02/21 08:28:00;;;;;;;44.05;20.52;;;;;;;;;;1765998;80;27368;-68
2024/02/21 08:30:27;;;;;;;44.20;21.35;;;;;;;;;;1767987;81;25468;-70
2024/02/21 08:32:54;;;;;;;44.42;20.45;;;;;;;;;;1768631;81;25600;-70
2024/02/21 08:35:23;;;;;;;50.92;20.10;;;;;;;;;;1768681;81;25607;-70
2024/02/21 08:37:50;;;;;;;40.55;20.10;;;;;;;;;;1768747;81;25650;-68
2024/02/21 08:40:19;;;;;;;44.80;20.12;;;;;;;;;;1768661;81;27365;-69
2024/02/21 08:42:45;;;;;;;44.35;19.05;;;;;;;;;;1768838;81;34798;-70
2024/02/21 08:45:12;;;;;;;44.15;19.32;;;;;;;;;;1768612;81;25631;-69
2024/02/21 08:47:42;;;;;;;35.55;17.50;;;;;;;;;;1768368;81;25708;-70
2024/02/21 08:50:10;;;;;;;41.63;18.65;;;;;;;;;;1767420;81;25797;-69
2024/02/21 08:52:37;;;;;;;36.73;16.95;;;;;;;;;;1767679;81;27452;-69
2024/02/21 08:55:04;;;;;;;40.78;17.45;;;;;;;;;;1767163;81;33229;-62
2024/02/21 08:57:36;;;;;;;38.17;17.75;;;;;;;;;;1767324;81;25981;-62
2024/02/21 08:59:58;;;;;;;45.20;19.05;;;;;;;;;;1766273;81;25628;-63
2024/02/21 09:02:24;;;;;;;36.17;16.97;;;;;;;;;;1768082;81;25761;-63
2024/02/21 09:04:50;;;;;;;41.37;18.48;;;;;;;;;;1768634;81;27943;-63
2024/02/21 09:07:16;;;;;;;35.85;16.75;;;;;;;;;;1768517;81;33379;-64
2024/02/21 09:09:42;;;;;;;33.28;17.37;;;;;;;;;;1768652;81;29709;-63
2024/02/21 09:12:09;;;;;;;42.27;17.52;;;;;;;;;;1768716;81;35063;-62
2024/02/21 09:14:40;;;;;;;43.13;17.70;;;;;;;;;;1768660;81;25485;-62
2024/02/21 09:17:06;;;;;;;42.60;16.95;;;;;;;;;;1768667;81;28087;-63
2024/02/21 09:19:35;;;;;;;38.42;16.62;;;;;;;;;;1768563;81;25621;-63
2024/02/21 09:22:01;;;;;;;36.75;15.90;;;;;;;;;;1768638;81;25449;-62
2024/02/21 09:24:28;;;;;;;38.30;15.40;;;;;;;;;;1768628;81;25498;-63
2024/02/21 09:26:54;;;;;;;40.25;15.63;;;;;;;;;;1768620;81;25550;-64
2024/02/21 09:29:21;;;;;;;36.20;15.88;;;;;;;;;;1765309;80;27252;-63
2024/02/21 09:31:47;;;;;;;31.80;14.53;;;;;;;;;;1764456;81;25513;-63
2024/02/21 09:34:14;;;;;;;34.67;15.32;;;;;;;;;;1764519;81;25523;-64
2024/02/21 09:36:40;;;;;;;33.18;15.18;;;;;;;;;;1764542;81;25717;-64
2024/02/21 09:39:06;;;;;;;41.25;16.12;;;;;;;;;;1764622;81;32245;-63
2024/02/21 09:41:36;;;;;;;38.60;16.32;;;;;;;;;;1764587;81;27325;-63
2024/02/21 09:44:04;;;;;;;35.55;15.13;;;;;;;;;;1764783;81;25596;-62
2024/02/21 09:46:51;;;;;;;33.63;13.32;;;;;;;;;;1764671;81;25548;-60
2024/02/21 09:49:31;;;;;;;30.10;14.65;;;;;;;;;;1764714;81;25751;-60
2024/02/21 09:52:02;;;;;;;32.88;13.68;;;;;;;;;;1763935;81;25622;-58
2024/02/21 09:54:33;;;;;;;31.57;15.15;;;;;;;;;;1764736;81;27998;-60
2024/02/21 09:57:02;;;;;;;32.35;14.25;;;;;;;;;;1764661;81;25679;-59
2024/02/21 09:59:30;;;;;;;;;;;;;;;;;;1767330;81;25539;-59
2024/02/21 10:01:56;;;;;;;31.42;12.68;;;;;;;;;;1731149;82;26527;-59
2024/02/21 10:04:24;;;;;;;35.35;13.20;;;;;;;;;;1734337;82;25584;-59
2024/02/21 10:06:54;;;;;;;29.10;12.28;;;;;;;;;;1764623;81;28193;-59
2024/02/21 10:09:22;;;;;;;;;;;;;;;;;;1733696;82;25633;-59
2024/02/21 10:11:51;;;;;;;23.70;11.48;;;;;;;;;;1731219;82;25617;-59
2024/02/21 10:14:18;;;;;;;34.75;12.25;;;;;;;;;;1734288;82;26523;-59
2024/02/21 10:16:52;;;;;;;29.98;12.53;;;;;;;;;;1764646;81;25505;-58
2024/02/21 10:19:20;;;;;;;36.93;13.53;;;;;;;;;;1763532;81;27465;-56
2024/02/21 10:22:07;;;;;;;36.05;14.20;;;;;;;;;;1764573;81;25525;-56
2024/02/21 10:24:37;;;;;;;46.33;13.88;;;;;;;;;;1731174;82;25625;-57
2024/02/21 10:27:11;;;;;;;31.02;12.75;;;;;;;;;;1734342;82;25620;-57
2024/02/21 10:29:36;;;;;;;26.80;12.05;;;;;;;;;;1751667;81;25521;-60
2024/02/21 10:32:11;;;;;;;25.37;10.32;;;;;;;;;;1703443;84;27279;-59
2024/02/21 10:34:40;;;;;;;39.33;14.75;;;;;;;;;;1703423;83;25705;-59
2024/02/21 10:37:08;;;;;;;28.30;12.98;;;;;;;;;;1719143;83;25545;-56
2024/02/21 10:39:38;;;;;;;28.80;10.57;;;;;;;;;;1749045;82;26058;-61
2024/02/21 10:42:04;;;;;;;29.20;11.28;;;;;;;;;;1716631;83;25626;-60
2024/02/21 10:44:34;;;;;;;34.03;11.12;;;;;;;;;;1703417;83;27913;-60
2024/02/21 10:47:07;;;;;;;25.82;10.85;;;;;;;;;;1718734;83;25631;-60
2024/02/21 10:49:39;;;;;;;33.55;11.28;;;;;;;;;;1748894;82;25432;-61
2024/02/21 10:52:27;;;;;;;28.47;9.78;;;;;;;;;;1748827;82;26289;-61
2024/02/21 10:55:03;;;;;;;25.90;9.68;;;;;;;;;;1703594;84;25611;-62
2024/02/21 10:57:31;;;;;;;30.52;9.85;;;;;;;;;;1703560;84;27513;-60
2024/02/21 11:00:00;;;;;;;23.60;9.75;;;;;;;;;;1718780;83;25605;-60
2024/02/21 11:02:30;;;;;;;24.87;9.33;;;;;;;;;;1748799;82;25450;-62
2024/02/21 11:04:59;;;;;;;22.15;10.23;;;;;;;;;;1748798;82;25649;-66
2024/02/21 11:07:25;;;;;;;24.02;9.70;;;;;;;;;;1703530;84;25434;-68
2024/02/21 11:09:54;;;;;;;31.60;10.75;;;;;;;;;;1719004;83;27429;-69
2024/02/21 11:12:23;;;;;;;26.37;10.00;;;;;;;;;;1748777;82;25535;-68
2024/02/21 11:14:49;;;;;;;28.65;11.30;;;;;;;;;;1703416;83;25602;-66
2024/02/21 11:17:26;;;;;;;20.72;10.15;;;;;;;;;;1718893;83;34749;-67
2024/02/21 11:19:50;;;;;;;28.75;10.90;;;;;;;;;;1748131;82;25556;-69
2024/02/21 11:22:19;;;;;;;33.78;11.80;;;;;;;;;;1703366;83;28600;-69
2024/02/21 11:24:47;;;;;;;29.80;12.18;;;;;;;;;;1719003;83;25474;-69
2024/02/21 11:27:22;;;;;;;22.90;10.58;;;;;;;;;;1748773;82;25454;-69
2024/02/21 11:29:59;;;;;;;30.97;10.78;;;;;;;;;;1725088;82;25726;-66
2024/02/21 11:32:27;;;;;;;27.67;11.05;;;;;;;;;;1756520;81;25577;-67
2024/02/21 11:35:03;;;;;;;27.32;12.10;;;;;;;;;;1756489;81;27373;-60
2024/02/21 11:37:38;;;;;;;38.75;18.50;;;;;;;;;;1756508;81;25606;-59
2024/02/21 11:40:09;;;;;;;29.10;12.60;;;;;;;;;;1756526;81;25219;-59
2024/02/21 11:42:36;;;;;;;29.12;13.95;;;;;;;;;;1756591;81;25626;-61
2024/02/21 11:45:02;;;;;;;32.67;12.93;;;;;;;;;;1755620;81;25420;-60
2024/02/21 11:47:29;;;;;;;27.10;13.43;;;;;;;;;;1755354;81;27319;-60
2024/02/21 11:49:56;;;;;;;31.50;13.18;;;;;;;;;;1756119;81;25552;-60
2024/02/21 11:52:25;;;;;;;37.00;15.28;;;;;;;;;;1756184;80;25753;-60
2024/02/21 11:54:54;;;;;;;31.35;14.87;;;;;;;;;;1756587;81;25716;-58
2024/02/21 11:57:22;;;;;;;28.80;14.80;;;;;;;;;;1756530;81;25547;-59
2024/02/21 11:59:49;;;;;;;39.73;15.30;;;;;;;;;;1756451;81;28290;-59
2024/02/21 12:02:18;;;;;;;37.93;16.15;;;;;;;;;;1756392;81;25726;-61
2024/02/21 12:04:44;;;;;;;32.45;16.15;;;;;;;;;;1756501;81;25644;-59
2024/02/21 12:07:11;;;;;;;36.95;16.40;;;;;;;;;;1730657;81;34774;-58
2024/02/21 12:09:37;;;;;;;35.30;17.20;;;;;;;;;;1756508;81;25559;-59
2024/02/21 12:12:06;;;;;;;37.30;17.62;;;;;;;;;;1756472;81;27679;-59
2024/02/21 12:14:34;;;;;;;35.00;17.42;;;;;;;;;;1756484;81;25350;-59
2024/02/21 12:17:05;;;;;;;35.25;17.00;;;;;;;;;;1756421;81;25487;-59
2024/02/21 12:19:36;;;;;;;33.15;17.30;;;;;;;;;;1756464;81;25556;-59
2024/02/21 12:22:05;;;;;;;44.85;17.62;;;;;;;;;;1726443;83;25656;-59
2024/02/21 12:24:30;;;;;;;31.35;17.17;;;;;;;;;;1725658;83;27362;-59
2024/02/21 12:26:58;;;;;;;38.67;17.10;;;;;;;;;;1726251;83;25899;-58
2024/02/21 12:29:26;;;;;;;41.00;18.67;;;;;;;;;;1722679;83;25456;-58
2024/02/21 12:31:54;;;;;;;41.92;19.73;;;;;;;;;;1718040;83;25623;-58
2024/02/21 12:34:22;;;;;;;40.73;18.92;;;;;;;;;;1718267;83;25708;-59
2024/02/21 12:36:49;;;;;;;44.55;20.27;;;;;;;;;;1718227;83;32401;-59
2024/02/21 12:39:16;;;;;;;47.25;19.23;;;;;;;;;;1717999;83;33020;-57
2024/02/21 12:41:44;;;;;;;41.85;19.57;;;;;;;;;;1718096;83;25478;-58
2024/02/21 12:44:12;;;;;;;37.67;18.98;;;;;;;;;;1718012;83;25926;-57
2024/02/21 12:46:51;;;;;;;45.20;18.62;;;;;;;;;;1718071;83;25466;-58
2024/02/21 12:49:19;;;;;;;39.85;19.95;;;;;;;;;;1718057;83;27996;-58
2024/02/21 12:51:47;;;;;;;41.92;19.80;;;;;;;;;;1717923;83;25919;-58
2024/02/21 12:54:15;;;;;;;42.83;20.15;;;;;;;;;;1692121;83;25576;-59
2024/02/21 12:56:41;;;;;;;37.60;20.12;;;;;;;;;;1717994;83;26467;-59
2024/02/21 12:59:10;;;;;;;38.55;19.87;;;;;;;;;;1718084;83;32591;-57
2024/02/21 13:01:38;;;;;;;44.10;20.25;;;;;;;;;;1718187;83;27996;-56
2024/02/21 13:04:04;;;;;;;39.55;19.32;;;;;;;;;;1717413;83;25701;-56
2024/02/21 13:06:33;;;;;;;42.70;20.75;;;;;;;;;;1717046;82;25653;-57
2024/02/21 13:09:01;;;;;;;40.88;22.60;;;;;;;;;;1717986;83;25955;-54
2024/02/21 13:11:30;;;;;;;42.53;21.48;;;;;;;;;;1717602;83;25419;-56
2024/02/21 13:13:54;;;;;;;43.80;21.95;;;;;;;;;;1717050;83;27470;-57
2024/02/21 13:16:20;;;;;;;49.18;21.97;;;;;;;;;;1718040;83;33250;-56
2024/02/21 13:18:47;;;;;;;40.98;20.85;;;;;;;;;;1718255;83;29604;-57
2024/02/21 13:21:14;;;;;;;46.63;22.25;;;;;;;;;;1718236;83;25587;-58
2024/02/21 13:23:40;;;;;;;42.95;20.88;;;;;;;;;;1718218;83;32447;-55
2024/02/21 13:26:09;;;;;;;43.58;19.52;;;;;;;;;;1718226;83;27972;-57
2024/02/21 13:28:36;;;;;;;42.98;20.37;;;;;;;;;;1718240;83;25593;-57
2024/02/21 13:31:04;;;;;;;38.10;20.35;;;;;;;;;;1733855;82;25687;-56
2024/02/21 13:33:30;;;;;;;38.88;19.40;;;;;;;;;;1734869;82;25590;-58
2024/02/21 13:35:58;;;;;;;40.12;19.12;;;;;;;;;;1734951;82;25419;-56
2024/02/21 13:38:24;;;;;;;34.80;18.90;;;;;;;;;;1734854;82;27364;-57
2024/02/21 13:41:04;;;;;;;39.75;20.08;;;;;;;;;;1738178;82;25604;-57
2024/02/21 13:43:35;;;;;;;35.40;19.10;;;;;;;;;;1664987;86;25692;-55
2024/02/21 13:46:05;;;;;;;36.25;19.57;;;;;;;;;;1664853;86;25642;-56
2024/02/21 13:48:33;;;;;;;45.20;21.27;;;;;;;;;;1659469;85;25530;-57
2024/02/21 13:51:02;;;;;;;42.80;20.40;;;;;;;;;;1665217;85;27462;-55
2024/02/21 13:53:30;;;;;;;41.40;20.65;;;;;;;;;;1665264;86;25651;-57
2024/02/21 13:55:58;;;;;;;44.20;21.37;;;;;;;;;;1659427;86;25486;-57
2024/02/21 13:58:25;;;;;;;44.35;20.43;;;;;;;;;;1665006;86;25703;-56
2024/02/21 14:00:53;;;;;;;42.85;19.42;;;;;;;;;;1659445;86;25609;-57
2024/02/21 14:03:20;;;;;;;37.73;19.45;;;;;;;;;;1664953;86;28364;-58
2024/02/21 14:05:51;;;;;;;34.03;18.67;;;;;;;;;;1664852;85;25594;-57
2024/02/21 14:08:18;;;;;;;44.50;19.12;;;;;;;;;;1664956;86;25574;-58
2024/02/21 14:10:44;;;;;;;38.53;18.92;;;;;;;;;;1664925;86;26322;-55
2024/02/21 14:13:11;;;;;;;40.25;18.42;;;;;;;;;;1664885;84;32811;-57
2024/02/21 14:15:42;;;;;;;39.90;19.07;;;;;;;;;;1659423;86;28130;-57
2024/02/21 14:18:10;;;;;;;33.42;18.48;;;;;;;;;;1664896;86;25519;-58
2024/02/21 14:20:37;;;;;;;42.25;19.10;;;;;;;;;;1659005;86;25675;-57
2024/02/21 14:23:06;;;;;;;38.23;18.32;;;;;;;;;;1664898;86;25694;-57